N254Q KCLE-KJFK
Flight info
| Callsign | N254Q |
|---|---|
| Flight time | 1h 12m |
| Altitude | 41000 |
| Route | PFLYD1 JASEE JHW Q476 HOXIE J70 LVZ LENDY8 |
| Aircraft | C25C/M-SDE2E3FGHRWXY/LB1 |
Departure
| Time | 2026-05-09 01:56 |
|---|---|
| Airport | Cleveland Hopkins International Airport (KCLE) |
Arrival
| Time | 2026-05-09 03:09 |
|---|---|
| Airport | John F. Kennedy International Airport (KJFK) |
| Time | Latitude | Longitude | Altitude | Speed | Heading |
|---|---|---|---|---|---|
| 2026-05-09 01:26 | 41.40100 | -81.85364 | 787 ft | 0 kts | 91° |
| 2026-05-09 01:46 | 41.40097 | -81.85362 | 787 ft | 1 kts | 163° |
| 2026-05-09 01:46 | 41.40097 | -81.85371 | 787 ft | 3 kts | 297° |
| 2026-05-09 01:46 | 41.40119 | -81.85407 | 786 ft | 2 kts | 346° |
| 2026-05-09 01:46 | 41.40148 | -81.85414 | 786 ft | 7 kts | 346° |
| 2026-05-09 01:47 | 41.40218 | -81.85434 | 785 ft | 13 kts | 349° |
| 2026-05-09 01:47 | 41.40311 | -81.85425 | 785 ft | 14 kts | 7° |
| 2026-05-09 01:47 | 41.40407 | -81.85462 | 781 ft | 15 kts | 342° |
| 2026-05-09 01:47 | 41.40515 | -81.85508 | 777 ft | 17 kts | 342° |
| 2026-05-09 01:48 | 41.40599 | -81.85453 | 778 ft | 14 kts | 48° |
| 2026-05-09 01:48 | 41.40660 | -81.85358 | 777 ft | 13 kts | 49° |
| 2026-05-09 01:48 | 41.40720 | -81.85264 | 776 ft | 13 kts | 50° |
| 2026-05-09 01:48 | 41.40770 | -81.85183 | 778 ft | 9 kts | 49° |
| 2026-05-09 01:49 | 41.40807 | -81.85125 | 779 ft | 10 kts | 50° |
| 2026-05-09 01:49 | 41.40862 | -81.85038 | 779 ft | 15 kts | 49° |
| 2026-05-09 01:49 | 41.40937 | -81.84920 | 783 ft | 18 kts | 50° |
| 2026-05-09 01:49 | 41.41026 | -81.84780 | 785 ft | 22 kts | 50° |
| 2026-05-09 01:50 | 41.41131 | -81.84613 | 787 ft | 23 kts | 50° |
| 2026-05-09 01:50 | 41.41232 | -81.84453 | 785 ft | 19 kts | 49° |
| 2026-05-09 01:50 | 41.41292 | -81.84359 | 786 ft | 5 kts | 51° |
| 2026-05-09 01:50 | 41.41307 | -81.84336 | 786 ft | 1 kts | 53° |
| 2026-05-09 01:51 | 41.41327 | -81.84302 | 786 ft | 9 kts | 51° |
| 2026-05-09 01:51 | 41.41345 | -81.84274 | 786 ft | 0 kts | 50° |
| 2026-05-09 01:52 | 41.41347 | -81.84272 | 786 ft | 2 kts | 50° |
| 2026-05-09 01:53 | 41.41371 | -81.84233 | 785 ft | 8 kts | 49° |
| 2026-05-09 01:53 | 41.41397 | -81.84192 | 786 ft | 4 kts | 49° |
| 2026-05-09 01:53 | 41.41403 | -81.84183 | 786 ft | 0 kts | 50° |
| 2026-05-09 01:54 | 41.41411 | -81.84171 | 786 ft | 6 kts | 47° |
| 2026-05-09 01:54 | 41.41454 | -81.84146 | 787 ft | 4 kts | 352° |
| 2026-05-09 01:55 | 41.41455 | -81.84146 | 787 ft | 0 kts | 351° |
| 2026-05-09 01:55 | 41.41502 | -81.84213 | 787 ft | 17 kts | 280° |
| 2026-05-09 01:55 | 41.41483 | -81.84293 | 785 ft | 0 kts | 230° |
| 2026-05-09 01:56 | 41.41286 | -81.84604 | 785 ft | 97 kts | 229° |
| 2026-05-09 01:56 | 41.40664 | -81.85619 | 1020 ft | 178 kts | 229° |
| 2026-05-09 01:56 | 41.39793 | -81.87065 | 1942 ft | 208 kts | 232° |
| 2026-05-09 01:56 | 41.39084 | -81.88496 | 2583 ft | 168 kts | 247° |
| 2026-05-09 01:57 | 41.38881 | -81.89910 | 2987 ft | 146 kts | 262° |
| 2026-05-09 01:57 | 41.38956 | -81.91241 | 3373 ft | 149 kts | 275° |
| 2026-05-09 01:57 | 41.39140 | -81.92653 | 3774 ft | 160 kts | 274° |
| 2026-05-09 01:57 | 41.39338 | -81.94150 | 4193 ft | 167 kts | 275° |
| 2026-05-09 01:58 | 41.39540 | -81.95684 | 4603 ft | 173 kts | 276° |
| 2026-05-09 01:58 | 41.39765 | -81.97415 | 5088 ft | 207 kts | 276° |
| 2026-05-09 01:58 | 41.40033 | -81.99446 | 5779 ft | 249 kts | 277° |
| 2026-05-09 01:58 | 41.40351 | -82.01886 | 5896 ft | 258 kts | 277° |
| 2026-05-09 01:59 | 41.40638 | -82.04083 | 5902 ft | 228 kts | 276° |
| 2026-05-09 01:59 | 41.40896 | -82.06101 | 5892 ft | 215 kts | 276° |
| 2026-05-09 01:59 | 41.41137 | -82.08043 | 5887 ft | 211 kts | 276° |
| 2026-05-09 01:59 | 41.41432 | -82.09969 | 5947 ft | 213 kts | 284° |
| 2026-05-09 02:00 | 41.42236 | -82.11682 | 5983 ft | 224 kts | 306° |
| 2026-05-09 02:00 | 41.43531 | -82.12905 | 6162 ft | 236 kts | 330° |
| 2026-05-09 02:00 | 41.45174 | -82.13335 | 6351 ft | 250 kts | 355° |
| 2026-05-09 02:00 | 41.46883 | -82.12736 | 6535 ft | 262 kts | 23° |
| 2026-05-09 02:01 | 41.48315 | -82.11191 | 6731 ft | 267 kts | 40° |
| 2026-05-09 02:01 | 41.49665 | -82.09483 | 6914 ft | 267 kts | 41° |
| 2026-05-09 02:01 | 41.50990 | -82.07740 | 7086 ft | 268 kts | 41° |
| 2026-05-09 02:01 | 41.52340 | -82.06015 | 7250 ft | 268 kts | 40° |
| 2026-05-09 02:02 | 41.53690 | -82.04296 | 7414 ft | 269 kts | 40° |
| 2026-05-09 02:02 | 41.55032 | -82.02598 | 7574 ft | 269 kts | 40° |
| 2026-05-09 02:02 | 41.56383 | -82.00868 | 7750 ft | 269 kts | 40° |
| 2026-05-09 02:02 | 41.57777 | -81.99090 | 8129 ft | 294 kts | 41° |
| 2026-05-09 02:03 | 41.59347 | -81.97097 | 9244 ft | 324 kts | 40° |
| 2026-05-09 02:03 | 41.61010 | -81.94959 | 10642 ft | 338 kts | 41° |
| 2026-05-09 02:03 | 41.62734 | -81.92753 | 12111 ft | 348 kts | 40° |
| 2026-05-09 02:03 | 41.64502 | -81.90480 | 13638 ft | 355 kts | 40° |
| 2026-05-09 02:04 | 41.65816 | -81.87695 | 15018 ft | 369 kts | 76° |
| 2026-05-09 02:04 | 41.66121 | -81.84281 | 16467 ft | 371 kts | 92° |
| 2026-05-09 02:04 | 41.65728 | -81.80868 | 17897 ft | 370 kts | 108° |
| 2026-05-09 02:04 | 41.65193 | -81.78690 | 18681 ft | 376 kts | 116° |
| 2026-05-09 02:05 | 41.64076 | -81.75475 | 19583 ft | 390 kts | 108° |
| 2026-05-09 02:05 | 41.63814 | -81.71829 | 20584 ft | 400 kts | 89° |
| 2026-05-09 02:05 | 41.63810 | -81.68058 | 21552 ft | 410 kts | 90° |
| 2026-05-09 02:05 | 41.63943 | -81.62933 | 22788 ft | 423 kts | 84° |
| 2026-05-09 02:06 | 41.64256 | -81.58935 | 22902 ft | 431 kts | 82° |
| 2026-05-09 02:06 | 41.64543 | -81.55066 | 22899 ft | 407 kts | 84° |
| 2026-05-09 02:06 | 41.64936 | -81.51440 | 22895 ft | 383 kts | 70° |
| 2026-05-09 02:07 | 41.66177 | -81.45886 | 22898 ft | 374 kts | 69° |
| 2026-05-09 02:07 | 41.66982 | -81.42477 | 23086 ft | 393 kts | 69° |
| 2026-05-09 02:07 | 41.67816 | -81.38915 | 23371 ft | 409 kts | 69° |
| 2026-05-09 02:07 | 41.68659 | -81.35209 | 23630 ft | 423 kts | 70° |
| 2026-05-09 02:08 | 41.69528 | -81.31389 | 23873 ft | 435 kts | 69° |
| 2026-05-09 02:08 | 41.70413 | -81.27523 | 24119 ft | 445 kts | 69° |
| 2026-05-09 02:08 | 41.71337 | -81.23509 | 24368 ft | 454 kts | 70° |
| 2026-05-09 02:08 | 41.72263 | -81.19439 | 24614 ft | 461 kts | 70° |
| 2026-05-09 02:09 | 41.73201 | -81.15311 | 24863 ft | 467 kts | 70° |
| 2026-05-09 02:09 | 41.74149 | -81.11133 | 25112 ft | 471 kts | 69° |
| 2026-05-09 02:09 | 41.75107 | -81.06924 | 25363 ft | 475 kts | 70° |
| 2026-05-09 02:09 | 41.76077 | -81.02653 | 25624 ft | 483 kts | 69° |
| 2026-05-09 02:10 | 41.77055 | -80.98315 | 25892 ft | 490 kts | 70° |
| 2026-05-09 02:10 | 41.78056 | -80.93911 | 26179 ft | 496 kts | 69° |
| 2026-05-09 02:10 | 41.79078 | -80.89481 | 26461 ft | 501 kts | 69° |
| 2026-05-09 02:10 | 41.80107 | -80.84997 | 26755 ft | 505 kts | 69° |
| 2026-05-09 02:11 | 41.81132 | -80.80480 | 27048 ft | 508 kts | 69° |
| 2026-05-09 02:11 | 41.82164 | -80.75927 | 27341 ft | 511 kts | 69° |
| 2026-05-09 02:11 | 41.83199 | -80.71361 | 27636 ft | 514 kts | 69° |
| 2026-05-09 02:11 | 41.84247 | -80.66756 | 27936 ft | 516 kts | 69° |
| 2026-05-09 02:12 | 41.85288 | -80.62136 | 28234 ft | 519 kts | 69° |
| 2026-05-09 02:12 | 41.86323 | -80.57552 | 28528 ft | 521 kts | 69° |
| 2026-05-09 02:12 | 41.87394 | -80.52916 | 28831 ft | 522 kts | 68° |
| 2026-05-09 02:12 | 41.88486 | -80.48256 | 29137 ft | 524 kts | 68° |
| 2026-05-09 02:13 | 41.89566 | -80.43572 | 29450 ft | 526 kts | 68° |
| 2026-05-09 02:13 | 41.90632 | -80.38873 | 29762 ft | 527 kts | 68° |
| 2026-05-09 02:13 | 41.91707 | -80.34172 | 30068 ft | 528 kts | 68° |
| 2026-05-09 02:13 | 41.92787 | -80.29462 | 30336 ft | 528 kts | 68° |
| 2026-05-09 02:14 | 41.93867 | -80.24746 | 30607 ft | 529 kts | 68° |
| 2026-05-09 02:14 | 41.94936 | -80.20025 | 30886 ft | 528 kts | 68° |
| 2026-05-09 02:14 | 41.96008 | -80.15301 | 31161 ft | 528 kts | 68° |
| 2026-05-09 02:14 | 41.97077 | -80.10583 | 31446 ft | 527 kts | 68° |
| 2026-05-09 02:15 | 41.98144 | -80.05875 | 31724 ft | 526 kts | 68° |
| 2026-05-09 02:15 | 41.99206 | -80.01165 | 32013 ft | 525 kts | 68° |
| 2026-05-09 02:15 | 42.00258 | -79.96476 | 32302 ft | 523 kts | 68° |
| 2026-05-09 02:15 | 42.01313 | -79.91793 | 32594 ft | 522 kts | 68° |
| 2026-05-09 02:16 | 42.02360 | -79.87116 | 32888 ft | 521 kts | 68° |
| 2026-05-09 02:16 | 42.03401 | -79.82468 | 33186 ft | 519 kts | 68° |
| 2026-05-09 02:16 | 42.04436 | -79.77819 | 33486 ft | 517 kts | 68° |
| 2026-05-09 02:16 | 42.05470 | -79.73187 | 33796 ft | 516 kts | 68° |
| 2026-05-09 02:17 | 42.06495 | -79.68573 | 34079 ft | 514 kts | 68° |
| 2026-05-09 02:17 | 42.07516 | -79.63964 | 34334 ft | 513 kts | 68° |
| 2026-05-09 02:17 | 42.08535 | -79.59367 | 34593 ft | 511 kts | 68° |
| 2026-05-09 02:17 | 42.09546 | -79.54781 | 34855 ft | 510 kts | 69° |
| 2026-05-09 02:18 | 42.10555 | -79.50205 | 35113 ft | 509 kts | 69° |
| 2026-05-09 02:18 | 42.11559 | -79.45643 | 35379 ft | 508 kts | 69° |
| 2026-05-09 02:18 | 42.12557 | -79.41085 | 35646 ft | 507 kts | 69° |
| 2026-05-09 02:18 | 42.13544 | -79.36588 | 35914 ft | 506 kts | 69° |
| 2026-05-09 02:19 | 42.14538 | -79.32038 | 36184 ft | 505 kts | 69° |
| 2026-05-09 02:19 | 42.15528 | -79.27493 | 36461 ft | 505 kts | 69° |
| 2026-05-09 02:19 | 42.16508 | -79.22938 | 36741 ft | 505 kts | 71° |
| 2026-05-09 02:19 | 42.17177 | -79.18279 | 37015 ft | 508 kts | 80° |
| 2026-05-09 02:20 | 42.17437 | -79.13534 | 37298 ft | 508 kts | 88° |
| 2026-05-09 02:20 | 42.17277 | -79.08764 | 37584 ft | 507 kts | 97° |
| 2026-05-09 02:20 | 42.16704 | -79.04087 | 37866 ft | 505 kts | 105° |
| 2026-05-09 02:20 | 42.15735 | -78.99559 | 38161 ft | 501 kts | 112° |
| 2026-05-09 02:21 | 42.14622 | -78.95144 | 38465 ft | 500 kts | 112° |
| 2026-05-09 02:21 | 42.13523 | -78.90741 | 38726 ft | 498 kts | 112° |
| 2026-05-09 02:21 | 42.12423 | -78.86325 | 38957 ft | 497 kts | 112° |
| 2026-05-09 02:21 | 42.11310 | -78.81902 | 39191 ft | 496 kts | 112° |
| 2026-05-09 02:22 | 42.10200 | -78.77512 | 39436 ft | 494 kts | 112° |
| 2026-05-09 02:22 | 42.09099 | -78.73140 | 39685 ft | 493 kts | 112° |
| 2026-05-09 02:22 | 42.07996 | -78.68771 | 39929 ft | 491 kts | 112° |
| 2026-05-09 02:22 | 42.06897 | -78.64423 | 40180 ft | 489 kts | 112° |
| 2026-05-09 02:23 | 42.05799 | -78.60097 | 40430 ft | 488 kts | 112° |
| 2026-05-09 02:23 | 42.04704 | -78.55791 | 40687 ft | 486 kts | 112° |
| 2026-05-09 02:23 | 42.03608 | -78.51485 | 40839 ft | 487 kts | 112° |
| 2026-05-09 02:24 | 42.01408 | -78.42865 | 40920 ft | 494 kts | 112° |
| 2026-05-09 02:24 | 41.99155 | -78.34072 | 40930 ft | 501 kts | 112° |
| 2026-05-09 02:25 | 41.96861 | -78.25149 | 40949 ft | 507 kts | 112° |
| 2026-05-09 02:25 | 41.94540 | -78.16152 | 40957 ft | 511 kts | 112° |
| 2026-05-09 02:26 | 41.92197 | -78.07105 | 40957 ft | 514 kts | 112° |
| 2026-05-09 02:26 | 41.89836 | -77.98029 | 40954 ft | 516 kts | 112° |
| 2026-05-09 02:27 | 41.87462 | -77.88926 | 40955 ft | 517 kts | 112° |
| 2026-05-09 02:27 | 41.85072 | -77.79808 | 40959 ft | 518 kts | 112° |
| 2026-05-09 02:28 | 41.82672 | -77.70684 | 40957 ft | 519 kts | 112° |
| 2026-05-09 02:28 | 41.80279 | -77.61615 | 40955 ft | 519 kts | 112° |
| 2026-05-09 02:29 | 41.77858 | -77.52490 | 40949 ft | 520 kts | 112° |
| 2026-05-09 02:29 | 41.75434 | -77.43365 | 40941 ft | 520 kts | 112° |
| 2026-05-09 02:30 | 41.72995 | -77.34233 | 40942 ft | 521 kts | 112° |
| 2026-05-09 02:30 | 41.70548 | -77.25098 | 40937 ft | 522 kts | 112° |
| 2026-05-09 02:31 | 41.68088 | -77.15950 | 40938 ft | 523 kts | 112° |
| 2026-05-09 02:31 | 41.65629 | -77.06846 | 40929 ft | 524 kts | 112° |
| 2026-05-09 02:32 | 41.63143 | -76.97673 | 40931 ft | 524 kts | 112° |
| 2026-05-09 02:32 | 41.60652 | -76.88515 | 40923 ft | 524 kts | 112° |
| 2026-05-09 02:33 | 41.58153 | -76.79363 | 40926 ft | 524 kts | 112° |
| 2026-05-09 02:33 | 41.55648 | -76.70221 | 40552 ft | 519 kts | 112° |
| 2026-05-09 02:33 | 41.54424 | -76.65759 | 40008 ft | 506 kts | 113° |
| 2026-05-09 02:34 | 41.53222 | -76.61392 | 39472 ft | 495 kts | 113° |
| 2026-05-09 02:34 | 41.52055 | -76.57162 | 38954 ft | 487 kts | 114° |
| 2026-05-09 02:34 | 41.50894 | -76.52964 | 38397 ft | 479 kts | 114° |
| 2026-05-09 02:34 | 41.49749 | -76.48823 | 37751 ft | 473 kts | 114° |
| 2026-05-09 02:35 | 41.48617 | -76.44737 | 37140 ft | 467 kts | 114° |
| 2026-05-09 02:35 | 41.47495 | -76.40694 | 36534 ft | 461 kts | 114° |
| 2026-05-09 02:35 | 41.46387 | -76.36709 | 35951 ft | 456 kts | 114° |
| 2026-05-09 02:35 | 41.45287 | -76.32761 | 35384 ft | 452 kts | 114° |
| 2026-05-09 02:36 | 41.44197 | -76.28854 | 34829 ft | 448 kts | 114° |
| 2026-05-09 02:36 | 41.43117 | -76.24981 | 34288 ft | 444 kts | 114° |
| 2026-05-09 02:36 | 41.42041 | -76.21135 | 33712 ft | 440 kts | 114° |
| 2026-05-09 02:36 | 41.40975 | -76.17328 | 33083 ft | 438 kts | 114° |
| 2026-05-09 02:37 | 41.39909 | -76.13537 | 32470 ft | 433 kts | 114° |
| 2026-05-09 02:37 | 41.38882 | -76.09864 | 31617 ft | 415 kts | 114° |
| 2026-05-09 02:37 | 41.37881 | -76.06304 | 30502 ft | 409 kts | 114° |
| 2026-05-09 02:37 | 41.36875 | -76.02752 | 29048 ft | 410 kts | 114° |
| 2026-05-09 02:38 | 41.35880 | -75.99231 | 27560 ft | 403 kts | 114° |
| 2026-05-09 02:38 | 41.34908 | -75.95775 | 26158 ft | 394 kts | 114° |
| 2026-05-09 02:38 | 41.33955 | -75.92403 | 24826 ft | 385 kts | 114° |
| 2026-05-09 02:38 | 41.33034 | -75.89157 | 23597 ft | 377 kts | 114° |
| 2026-05-09 02:39 | 41.32099 | -75.85875 | 22963 ft | 378 kts | 114° |
| 2026-05-09 02:39 | 41.31185 | -75.82649 | 22980 ft | 371 kts | 114° |
| 2026-05-09 02:39 | 41.30263 | -75.79412 | 22983 ft | 377 kts | 114° |
| 2026-05-09 02:39 | 41.29327 | -75.76126 | 22987 ft | 382 kts | 114° |
| 2026-05-09 02:40 | 41.28378 | -75.72800 | 22985 ft | 387 kts | 114° |
| 2026-05-09 02:40 | 41.27399 | -75.69381 | 22986 ft | 410 kts | 115° |
| 2026-05-09 02:40 | 41.26172 | -75.65798 | 22985 ft | 441 kts | 118° |
| 2026-05-09 02:40 | 41.24915 | -75.61946 | 22982 ft | 464 kts | 115° |
| 2026-05-09 02:41 | 41.23651 | -75.57978 | 22976 ft | 467 kts | 116° |
| 2026-05-09 02:41 | 41.22326 | -75.54028 | 22985 ft | 469 kts | 117° |
| 2026-05-09 02:41 | 41.20972 | -75.50072 | 22992 ft | 470 kts | 117° |
| 2026-05-09 02:41 | 41.19639 | -75.46104 | 22992 ft | 471 kts | 117° |
| 2026-05-09 02:42 | 41.18313 | -75.42114 | 22992 ft | 472 kts | 116° |
| 2026-05-09 02:42 | 41.16981 | -75.38127 | 22990 ft | 473 kts | 117° |
| 2026-05-09 02:42 | 41.15648 | -75.34196 | 22989 ft | 473 kts | 117° |
| 2026-05-09 02:42 | 41.14301 | -75.30207 | 22987 ft | 474 kts | 117° |
| 2026-05-09 02:43 | 41.12957 | -75.26220 | 22987 ft | 474 kts | 117° |
| 2026-05-09 02:43 | 41.11614 | -75.22236 | 22815 ft | 471 kts | 117° |
| 2026-05-09 02:43 | 41.10326 | -75.18418 | 22250 ft | 437 kts | 117° |
| 2026-05-09 02:43 | 41.09116 | -75.14851 | 21677 ft | 410 kts | 117° |
| 2026-05-09 02:44 | 41.07976 | -75.11496 | 21119 ft | 389 kts | 117° |
| 2026-05-09 02:44 | 41.06886 | -75.08297 | 20569 ft | 373 kts | 117° |
| 2026-05-09 02:44 | 41.05841 | -75.05222 | 20026 ft | 361 kts | 117° |
| 2026-05-09 02:44 | 41.04806 | -75.02196 | 19501 ft | 362 kts | 117° |
| 2026-05-09 02:45 | 41.03767 | -74.99150 | 19058 ft | 362 kts | 117° |
| 2026-05-09 02:45 | 41.02753 | -74.96170 | 18979 ft | 349 kts | 117° |
| 2026-05-09 02:45 | 41.01775 | -74.93302 | 18965 ft | 335 kts | 117° |
| 2026-05-09 02:45 | 41.00822 | -74.90520 | 18965 ft | 333 kts | 118° |
| 2026-05-09 02:46 | 40.99854 | -74.87675 | 18966 ft | 345 kts | 115° |
| 2026-05-09 02:46 | 40.99284 | -74.84538 | 18967 ft | 357 kts | 98° |
| 2026-05-09 02:46 | 40.98949 | -74.81249 | 18975 ft | 364 kts | 97° |
| 2026-05-09 02:46 | 40.98630 | -74.77892 | 18985 ft | 370 kts | 98° |
| 2026-05-09 02:47 | 40.98258 | -74.74497 | 18987 ft | 376 kts | 99° |
| 2026-05-09 02:47 | 40.97872 | -74.71053 | 18991 ft | 380 kts | 98° |
| 2026-05-09 02:47 | 40.97490 | -74.67575 | 18984 ft | 384 kts | 98° |
| 2026-05-09 02:47 | 40.97116 | -74.64061 | 18985 ft | 386 kts | 98° |
| 2026-05-09 02:48 | 40.96733 | -74.60577 | 18993 ft | 388 kts | 98° |
| 2026-05-09 02:48 | 40.96346 | -74.57034 | 18998 ft | 390 kts | 98° |
| 2026-05-09 02:48 | 40.95952 | -74.53480 | 19000 ft | 392 kts | 98° |
| 2026-05-09 02:48 | 40.95562 | -74.49909 | 18999 ft | 392 kts | 98° |
| 2026-05-09 02:49 | 40.95164 | -74.46327 | 19000 ft | 393 kts | 98° |
| 2026-05-09 02:49 | 40.94767 | -74.42743 | 18999 ft | 394 kts | 98° |
| 2026-05-09 02:49 | 40.94371 | -74.39162 | 18996 ft | 394 kts | 98° |
| 2026-05-09 02:49 | 40.93967 | -74.35574 | 18996 ft | 394 kts | 98° |
| 2026-05-09 02:50 | 40.93568 | -74.31984 | 18999 ft | 394 kts | 98° |
| 2026-05-09 02:50 | 40.93166 | -74.28397 | 18998 ft | 394 kts | 98° |
| 2026-05-09 02:50 | 40.92759 | -74.24812 | 19001 ft | 395 kts | 98° |
| 2026-05-09 02:50 | 40.92357 | -74.21210 | 18998 ft | 395 kts | 98° |
| 2026-05-09 02:51 | 40.92086 | -74.18832 | 18998 ft | 395 kts | 98° |
| 2026-05-09 02:51 | 40.91579 | -74.15266 | 18975 ft | 394 kts | 110° |
| 2026-05-09 02:51 | 40.90178 | -74.12234 | 18967 ft | 384 kts | 139° |
| 2026-05-09 02:51 | 40.87285 | -74.09715 | 18804 ft | 365 kts | 162° |
| 2026-05-09 02:52 | 40.85776 | -74.08819 | 18651 ft | 354 kts | 165° |
| 2026-05-09 02:52 | 40.83536 | -74.07623 | 18409 ft | 341 kts | 167° |
| 2026-05-09 02:52 | 40.81354 | -74.06497 | 18151 ft | 332 kts | 167° |
| 2026-05-09 02:52 | 40.79219 | -74.05421 | 17871 ft | 325 kts | 167° |
| 2026-05-09 02:53 | 40.77128 | -74.04354 | 17615 ft | 320 kts | 167° |
| 2026-05-09 02:53 | 40.75063 | -74.03301 | 17344 ft | 316 kts | 167° |
| 2026-05-09 02:53 | 40.73024 | -74.02261 | 17109 ft | 311 kts | 167° |
| 2026-05-09 02:53 | 40.71009 | -74.01222 | 16467 ft | 316 kts | 167° |
| 2026-05-09 02:54 | 40.68945 | -74.00184 | 14936 ft | 308 kts | 167° |
| 2026-05-09 02:54 | 40.66996 | -73.99202 | 13549 ft | 294 kts | 167° |
| 2026-05-09 02:54 | 40.65069 | -73.98248 | 12991 ft | 296 kts | 167° |
| 2026-05-09 02:54 | 40.63196 | -73.97312 | 13002 ft | 281 kts | 168° |
| 2026-05-09 02:55 | 40.61411 | -73.96402 | 12999 ft | 269 kts | 167° |
| 2026-05-09 02:55 | 40.59697 | -73.95515 | 12998 ft | 261 kts | 167° |
| 2026-05-09 02:55 | 40.58034 | -73.94641 | 12991 ft | 253 kts | 167° |
| 2026-05-09 02:55 | 40.56442 | -73.93793 | 12991 ft | 248 kts | 167° |
| 2026-05-09 02:56 | 40.54841 | -73.92934 | 12988 ft | 243 kts | 167° |
| 2026-05-09 02:56 | 40.53307 | -73.92103 | 12991 ft | 240 kts | 167° |
| 2026-05-09 02:56 | 40.51777 | -73.91267 | 12991 ft | 237 kts | 167° |
| 2026-05-09 02:56 | 40.50265 | -73.90436 | 12990 ft | 235 kts | 167° |
| 2026-05-09 02:57 | 40.48767 | -73.89603 | 12991 ft | 233 kts | 167° |
| 2026-05-09 02:57 | 40.47248 | -73.88771 | 12139 ft | 251 kts | 167° |
| 2026-05-09 02:57 | 40.45492 | -73.87865 | 10426 ft | 289 kts | 167° |
| 2026-05-09 02:57 | 40.43626 | -73.86921 | 8665 ft | 289 kts | 167° |
| 2026-05-09 02:58 | 40.41759 | -73.85989 | 7971 ft | 287 kts | 167° |
| 2026-05-09 02:58 | 40.39913 | -73.85067 | 8002 ft | 281 kts | 167° |
| 2026-05-09 02:58 | 40.38185 | -73.83852 | 7993 ft | 293 kts | 143° |
| 2026-05-09 02:58 | 40.36935 | -73.81653 | 7082 ft | 301 kts | 123° |
| 2026-05-09 02:59 | 40.36030 | -73.79301 | 6081 ft | 275 kts | 119° |
| 2026-05-09 02:59 | 40.35284 | -73.77124 | 5471 ft | 252 kts | 117° |
| 2026-05-09 02:59 | 40.34568 | -73.75044 | 4967 ft | 249 kts | 117° |
| 2026-05-09 02:59 | 40.34199 | -73.72867 | 4439 ft | 247 kts | 83° |
| 2026-05-09 03:00 | 40.34903 | -73.70907 | 4023 ft | 237 kts | 42° |
| 2026-05-09 03:00 | 40.36196 | -73.69644 | 3695 ft | 230 kts | 30° |
| 2026-05-09 03:00 | 40.37540 | -73.68534 | 3372 ft | 227 kts | 28° |
| 2026-05-09 03:00 | 40.38874 | -73.67493 | 3052 ft | 225 kts | 27° |
| 2026-05-09 03:01 | 40.40219 | -73.66469 | 2720 ft | 223 kts | 28° |
| 2026-05-09 03:01 | 40.41557 | -73.65459 | 2392 ft | 221 kts | 27° |
| 2026-05-09 03:01 | 40.42896 | -73.64471 | 2111 ft | 219 kts | 27° |
| 2026-05-09 03:01 | 40.44244 | -73.63490 | 2035 ft | 223 kts | 27° |
| 2026-05-09 03:02 | 40.45612 | -73.62503 | 2007 ft | 224 kts | 27° |
| 2026-05-09 03:02 | 40.46975 | -73.61519 | 2007 ft | 223 kts | 27° |
| 2026-05-09 03:02 | 40.48335 | -73.60539 | 2009 ft | 222 kts | 27° |
| 2026-05-09 03:02 | 40.49755 | -73.59761 | 2004 ft | 221 kts | 14° |
| 2026-05-09 03:03 | 40.51248 | -73.59395 | 2004 ft | 220 kts | 7° |
| 2026-05-09 03:03 | 40.52761 | -73.59116 | 2005 ft | 219 kts | 2° |
| 2026-05-09 03:03 | 40.54208 | -73.59603 | 1995 ft | 216 kts | 332° |
| 2026-05-09 03:03 | 40.55407 | -73.60760 | 1991 ft | 214 kts | 308° |
| 2026-05-09 03:04 | 40.56178 | -73.62400 | 2020 ft | 204 kts | 296° |
| 2026-05-09 03:04 | 40.56833 | -73.63976 | 2016 ft | 189 kts | 298° |
| 2026-05-09 03:04 | 40.57470 | -73.65433 | 2010 ft | 175 kts | 299° |
| 2026-05-09 03:04 | 40.58054 | -73.66723 | 1995 ft | 156 kts | 299° |
| 2026-05-09 03:05 | 40.58582 | -73.67864 | 1849 ft | 134 kts | 299° |
| 2026-05-09 03:05 | 40.59040 | -73.68873 | 1674 ft | 124 kts | 299° |
| 2026-05-09 03:05 | 40.59470 | -73.69837 | 1507 ft | 120 kts | 296° |
| 2026-05-09 03:05 | 40.59900 | -73.70775 | 1346 ft | 118 kts | 298° |
| 2026-05-09 03:06 | 40.60310 | -73.71682 | 1189 ft | 112 kts | 297° |
| 2026-05-09 03:06 | 40.60700 | -73.72548 | 1037 ft | 108 kts | 297° |
| 2026-05-09 03:06 | 40.61086 | -73.73391 | 891 ft | 107 kts | 298° |
| 2026-05-09 03:06 | 40.61474 | -73.74233 | 680 ft | 108 kts | 298° |
| 2026-05-09 03:07 | 40.61849 | -73.75071 | 502 ft | 107 kts | 299° |
| 2026-05-09 03:07 | 40.62223 | -73.75900 | 360 ft | 105 kts | 300° |
| 2026-05-09 03:07 | 40.62597 | -73.76723 | 212 ft | 105 kts | 300° |
| 2026-05-09 03:07 | 40.62963 | -73.77544 | 73 ft | 103 kts | 301° |
| 2026-05-09 03:08 | 40.63323 | -73.78330 | 20 ft | 97 kts | 301° |
| 2026-05-09 03:08 | 40.63653 | -73.79049 | 16 ft | 83 kts | 298° |
| 2026-05-09 03:08 | 40.63908 | -73.79622 | 14 ft | 64 kts | 301° |
| 2026-05-09 03:08 | 40.64111 | -73.80072 | 16 ft | 52 kts | 301° |
| 2026-05-09 03:09 | 40.64281 | -73.80446 | 15 ft | 44 kts | 301° |
| 2026-05-09 03:09 | 40.64427 | -73.80770 | 16 ft | 38 kts | 301° |
| 2026-05-09 03:09 | 40.64559 | -73.81059 | 18 ft | 36 kts | 301° |
| 2026-05-09 03:09 | 40.64683 | -73.81333 | 18 ft | 34 kts | 300° |
| 2026-05-09 03:10 | 40.64799 | -73.81408 | 16 ft | 19 kts | 31° |
| 2026-05-09 03:10 | 40.64834 | -73.81380 | 15 ft | 0 kts | 31° |
| 2026-05-09 03:10 | 40.64864 | -73.81356 | 15 ft | 14 kts | 31° |
| 2026-05-09 03:10 | 40.64928 | -73.81304 | 14 ft | 4 kts | 53° |
| 2026-05-09 03:11 | 40.64952 | -73.81199 | 14 ft | 15 kts | 29° |
| 2026-05-09 03:11 | 40.65001 | -73.81102 | 14 ft | 13 kts | 61° |
| 2026-05-09 03:11 | 40.65016 | -73.81004 | 14 ft | 7 kts | 158° |
| 2026-05-09 03:11 | 40.64976 | -73.80987 | 14 ft | 2 kts | 201° |
| 2026-05-09 03:12 | 40.64962 | -73.81043 | 14 ft | 3 kts | 303° |
| 2026-05-09 03:12 | 40.64964 | -73.81045 | 14 ft | 0 kts | 333° |